createdAt,value
2018-01-14T00:00:39.973Z,7.35
2018-01-14T00:03:09.194Z,6.65
2018-01-14T00:05:37.856Z,6.95
2018-01-14T00:08:06.109Z,6.78
2018-01-14T00:10:34.988Z,7.10
2018-01-14T00:13:02.771Z,9.55
2018-01-14T00:15:31.518Z,8.93
2018-01-14T00:18:00.430Z,7.75
2018-01-14T00:20:28.212Z,7.25
2018-01-14T00:22:55.941Z,7.72
2018-01-14T00:25:23.576Z,7.75
2018-01-14T00:27:51.250Z,7.35
2018-01-14T00:30:20.567Z,7.97
2018-01-14T00:32:48.653Z,8.60
2018-01-14T00:35:16.248Z,9.88
2018-01-14T00:37:44.201Z,7.82
2018-01-14T00:40:12.246Z,7.90
2018-01-14T00:42:40.635Z,7.18
2018-01-14T00:45:08.324Z,8.52
2018-01-14T00:47:35.875Z,8.55
2018-01-14T00:50:03.434Z,7.12
2018-01-14T00:52:32.666Z,10.35
2018-01-14T00:55:00.545Z,12.40
2018-01-14T00:57:28.118Z,8.73
2018-01-14T00:59:55.781Z,11.88
2018-01-14T01:02:24.257Z,9.02
2018-01-14T01:04:51.812Z,9.90
2018-01-14T01:07:19.674Z,8.50
2018-01-14T01:09:47.401Z,8.32
2018-01-14T01:12:15.028Z,8.23
2018-01-14T01:14:42.723Z,8.35
2018-01-14T01:17:10.584Z,7.82
2018-01-14T01:19:38.630Z,11.20
2018-01-14T01:22:06.324Z,11.98
2018-01-14T01:24:34.034Z,9.60
2018-01-14T01:27:01.672Z,11.82
2018-01-14T01:29:29.404Z,10.52
2018-01-14T01:31:57.133Z,10.88
2018-01-14T01:34:25.112Z,11.15
2018-01-14T01:36:52.902Z,9.90
2018-01-14T01:39:20.622Z,10.20
2018-01-14T01:41:48.287Z,11.98
2018-01-14T01:44:15.939Z,11.98
2018-01-14T01:46:44.633Z,13.55
2018-01-14T01:49:12.480Z,15.60
2018-01-14T01:51:40.113Z,15.15
2018-01-14T01:54:07.834Z,14.27
2018-01-14T01:56:36.062Z,18.35
2018-01-14T01:59:03.655Z,20.05
2018-01-14T02:01:31.446Z,13.30
2018-01-14T02:03:59.799Z,14.65
2018-01-14T02:06:27.370Z,16.58
2018-01-14T02:08:55.238Z,17.00
2018-01-14T02:11:23.204Z,21.17
2018-01-14T02:13:50.867Z,12.07
2018-01-14T02:16:19.173Z,15.45
2018-01-14T02:18:46.893Z,14.20
2018-01-14T02:21:14.441Z,14.95
2018-01-14T02:23:42.184Z,16.23
2018-01-14T02:26:10.714Z,10.80
2018-01-14T02:28:38.287Z,13.65
2018-01-14T02:31:06.931Z,11.43
2018-01-14T02:33:34.605Z,10.13
2018-01-14T02:36:02.148Z,13.20
2018-01-14T02:38:29.813Z,11.43
2018-01-14T02:40:57.839Z,12.57
2018-01-14T02:43:25.824Z,11.18
2018-01-14T02:45:54.057Z,9.95
2018-01-14T02:48:21.859Z,11.68
2018-01-14T02:50:49.630Z,13.07
2018-01-14T02:53:17.872Z,12.95
2018-01-14T02:55:45.476Z,6.85
2018-01-14T02:58:13.602Z,11.02
2018-01-14T03:00:41.915Z,9.95
2018-01-14T03:03:09.523Z,8.57
2018-01-14T03:05:37.126Z,11.65
2018-01-14T03:08:05.051Z,8.52
2018-01-14T03:10:32.804Z,7.72
2018-01-14T03:13:00.380Z,11.65
2018-01-14T03:15:28.088Z,12.85
2018-01-14T03:17:55.686Z,7.65
2018-01-14T03:20:23.875Z,9.02
2018-01-14T03:22:51.660Z,6.75
2018-01-14T03:25:20.017Z,7.72
2018-01-14T03:27:48.126Z,7.32
2018-01-14T03:30:16.336Z,7.97
2018-01-14T03:32:44.543Z,11.65
2018-01-14T03:35:12.367Z,6.90
2018-01-14T03:37:40.671Z,10.88
2018-01-14T03:40:08.548Z,8.10
2018-01-14T03:42:37.793Z,8.93
2018-01-14T03:45:06.240Z,6.18
2018-01-14T03:47:35.956Z,5.80
2018-01-14T03:50:04.059Z,6.78
2018-01-14T03:52:32.256Z,7.37
2018-01-14T03:55:00.376Z,11.10
2018-01-14T03:57:28.305Z,6.68
2018-01-14T03:59:56.634Z,7.32
2018-01-14T04:02:25.216Z,7.50
2018-01-14T04:04:52.847Z,6.78
2018-01-14T04:07:20.644Z,5.78
2018-01-14T04:09:48.321Z,9.93
2018-01-14T04:12:15.951Z,8.30
2018-01-14T04:14:43.519Z,9.75
2018-01-14T04:17:11.241Z,11.52
2018-01-14T04:19:39.101Z,5.20
2018-01-14T04:22:07.840Z,4.95
2018-01-14T04:24:35.617Z,4.80
2018-01-14T04:27:03.342Z,3.97
2018-01-14T04:29:30.979Z,3.83
2018-01-14T04:32:00.236Z,6.10
2018-01-14T04:34:28.023Z,5.05
2018-01-14T04:36:57.495Z,3.97
2018-01-14T04:39:30.588Z,4.93
2018-01-14T04:42:00.868Z,5.93
2018-01-14T04:44:33.255Z,5.90
2018-01-14T04:47:04.084Z,5.60
2018-01-14T04:49:32.944Z,4.70
2018-01-14T04:52:00.958Z,5.30
2018-01-14T04:54:28.613Z,7.50
2018-01-14T04:56:56.294Z,6.25
2018-01-14T04:59:23.892Z,4.80
2018-01-14T05:01:51.563Z,5.28
2018-01-14T05:04:21.185Z,4.95
2018-01-14T05:06:50.940Z,4.47
2018-01-14T05:09:18.659Z,5.90
2018-01-14T05:11:49.118Z,7.00
2018-01-14T05:14:19.645Z,6.12
2018-01-14T05:16:51.016Z,4.65
2018-01-14T05:19:20.982Z,4.45
2018-01-14T05:21:51.520Z,5.97
2018-01-14T05:24:22.588Z,5.28
2018-01-14T05:26:50.687Z,8.10
2018-01-14T05:29:19.190Z,5.12
2018-01-14T05:31:50.457Z,5.82
2018-01-14T05:34:20.658Z,5.78
2018-01-14T05:36:49.202Z,11.70
2018-01-14T05:39:20.299Z,6.50
2018-01-14T05:41:51.282Z,6.07
2018-01-14T05:44:21.488Z,7.32
2018-01-14T05:46:54.290Z,7.57
2018-01-14T05:49:28.585Z,8.00
2018-01-14T05:51:58.223Z,7.12
2018-01-14T05:54:27.788Z,7.05
2018-01-14T05:56:56.998Z,7.68
2018-01-14T05:59:26.493Z,6.60
2018-01-14T06:01:57.113Z,8.18
2018-01-14T06:04:31.814Z,6.03
2018-01-14T06:07:01.360Z,6.22
2018-01-14T06:09:30.995Z,6.80
2018-01-14T06:12:00.330Z,7.70
2018-01-14T06:14:28.179Z,5.62
2018-01-14T06:16:55.760Z,5.95
2018-01-14T06:19:24.164Z,6.32
2018-01-14T06:21:51.956Z,7.95
2018-01-14T06:24:19.845Z,3.90
2018-01-14T06:26:47.526Z,6.15
2018-01-14T06:29:15.238Z,6.22
2018-01-14T06:31:43.223Z,7.72
2018-01-14T06:34:11.269Z,7.50
2018-01-14T06:36:41.757Z,5.90
2018-01-14T06:39:14.806Z,8.13
2018-01-14T06:41:49.049Z,5.62
2018-01-14T06:44:24.864Z,6.65
2018-01-14T06:46:56.138Z,7.00
2018-01-14T06:49:27.818Z,5.62
2018-01-14T06:51:58.215Z,7.12
2018-01-14T06:54:27.466Z,7.45
2018-01-14T06:56:59.044Z,7.93
2018-01-14T06:59:29.569Z,4.93
2018-01-14T07:02:00.123Z,7.95
2018-01-14T07:04:31.077Z,5.10
2018-01-14T07:06:59.481Z,8.75
2018-01-14T07:09:28.588Z,9.05
2018-01-14T07:11:56.927Z,7.65
2018-01-14T07:14:25.287Z,10.40
2018-01-14T07:16:54.736Z,7.55
2018-01-14T07:19:29.288Z,11.18
2018-01-14T07:21:59.964Z,9.15
2018-01-14T07:24:29.524Z,9.27
2018-01-14T07:27:00.048Z,7.43
2018-01-14T07:29:30.330Z,11.73
2018-01-14T07:32:01.067Z,11.60
2018-01-14T07:34:31.087Z,6.50
2018-01-14T07:36:59.636Z,12.73
2018-01-14T07:39:31.503Z,10.77
2018-01-14T07:42:00.881Z,15.13
2018-01-14T07:44:29.230Z,9.20
2018-01-14T07:47:00.574Z,8.82
2018-01-14T07:49:31.085Z,14.90
2018-01-14T07:52:01.046Z,14.05
2018-01-14T07:54:39.352Z,10.75
2018-01-14T07:57:08.026Z,10.38
2018-01-14T07:59:38.046Z,14.18
2018-01-14T08:02:06.016Z,10.85
2018-01-14T08:04:35.371Z,12.43
2018-01-14T08:07:05.516Z,14.35
2018-01-14T08:09:35.671Z,14.15
2018-01-14T08:12:07.070Z,15.85
2018-01-14T08:14:36.494Z,11.55
2018-01-14T08:17:12.495Z,12.90
2018-01-14T08:19:41.916Z,16.00
2018-01-14T08:22:13.837Z,10.57
2018-01-14T08:24:44.717Z,11.40
2018-01-14T08:27:15.799Z,13.07
2018-01-14T08:29:48.354Z,13.57
2018-01-14T08:32:17.291Z,13.95
2018-01-14T08:34:47.866Z,10.73
2018-01-14T08:37:16.805Z,12.55
2018-01-14T08:39:46.347Z,15.13
2018-01-14T08:42:18.552Z,12.82
2018-01-14T08:44:47.957Z,13.30
2018-01-14T08:47:19.679Z,14.25
2018-01-14T08:49:53.294Z,14.85
2018-01-14T08:54:59.443Z,13.93
2018-01-14T08:57:32.273Z,15.52
2018-01-14T09:00:10.463Z,13.68
2018-01-14T09:02:39.332Z,10.73
2018-01-14T09:05:08.200Z,11.68
2018-01-14T09:07:35.855Z,10.10
2018-01-14T09:10:03.528Z,15.23
2018-01-14T09:12:31.901Z,14.98
2018-01-14T09:14:59.672Z,14.68
2018-01-14T09:17:27.271Z,12.68
2018-01-14T09:19:54.872Z,11.50
2018-01-14T09:22:22.521Z,8.50
2018-01-14T09:24:50.071Z,11.12
2018-01-14T09:27:18.653Z,11.75
2018-01-14T09:29:46.373Z,9.95
2018-01-14T09:32:14.064Z,13.98
2018-01-14T09:34:41.664Z,19.00
2018-01-14T09:37:10.156Z,13.55
2018-01-14T09:39:37.875Z,15.15
2018-01-14T09:42:06.201Z,16.52
2018-01-14T09:44:33.904Z,12.35
2018-01-14T09:47:01.585Z,13.23
2018-01-14T09:49:29.895Z,13.45
2018-01-14T09:51:57.545Z,19.58
2018-01-14T09:54:25.247Z,9.70
2018-01-14T09:56:53.784Z,11.60
2018-01-14T09:59:22.030Z,9.98
2018-01-14T10:01:49.764Z,19.08
2018-01-14T10:04:17.396Z,13.20
2018-01-14T10:06:45.034Z,13.40
2018-01-14T10:09:12.847Z,10.82
2018-01-14T10:11:40.427Z,10.95
2018-01-14T10:14:08.102Z,17.98
2018-01-14T10:16:36.593Z,14.02
2018-01-14T10:19:04.357Z,12.35
2018-01-14T10:21:31.936Z,9.43
2018-01-14T10:23:59.713Z,11.73
2018-01-14T10:26:27.293Z,11.88
2018-01-14T10:28:54.869Z,14.10
2018-01-14T10:31:22.821Z,11.73
2018-01-14T10:33:51.133Z,15.10
2018-01-14T10:36:19.669Z,13.00
2018-01-14T10:38:48.253Z,12.65
2018-01-14T10:41:15.906Z,17.98
2018-01-14T10:43:43.441Z,19.37
2018-01-14T10:46:11.144Z,17.35
2018-01-14T10:48:38.724Z,17.10
2018-01-14T10:51:06.301Z,10.23
2018-01-14T10:53:34.019Z,17.27
2018-01-14T10:56:01.633Z,15.05
2018-01-14T10:58:29.380Z,11.65
2018-01-14T11:00:58.962Z,11.45
2018-01-14T11:03:26.516Z,22.37
2018-01-14T11:05:54.117Z,17.02
2018-01-14T11:08:21.857Z,11.77
2018-01-14T11:10:49.649Z,6.90
2018-01-14T11:13:17.207Z,10.23
2018-01-14T11:15:44.907Z,11.00
2018-01-14T11:18:12.487Z,13.27
2018-01-14T11:20:40.499Z,8.90
2018-01-14T11:23:08.214Z,10.93
2018-01-14T11:25:35.755Z,12.35
2018-01-14T11:28:03.370Z,11.82
2018-01-14T11:30:31.073Z,9.23
2018-01-14T11:32:58.617Z,15.45
2018-01-14T11:35:26.746Z,10.70
2018-01-14T11:37:54.420Z,11.50
2018-01-14T11:40:21.981Z,14.85
2018-01-14T11:42:49.609Z,18.40
2018-01-14T11:45:17.432Z,16.60
2018-01-14T11:47:45.089Z,7.90
2018-01-14T11:50:12.920Z,12.98
2018-01-14T11:52:41.409Z,11.48
2018-01-14T11:55:09.068Z,13.18
2018-01-14T11:57:36.818Z,15.10
2018-01-14T12:00:08.419Z,13.68
2018-01-14T12:02:36.471Z,17.17
2018-01-14T12:05:04.017Z,10.55
2018-01-14T12:07:31.921Z,17.37
2018-01-14T12:09:59.501Z,11.25
2018-01-14T12:12:29.204Z,13.45
2018-01-14T12:14:56.923Z,14.43
2018-01-14T12:17:28.623Z,15.50
2018-01-14T12:19:56.317Z,13.88
2018-01-14T12:22:23.948Z,9.70
2018-01-14T12:24:51.864Z,14.87
2018-01-14T12:27:19.974Z,17.87
2018-01-14T12:29:47.549Z,13.27
2018-01-14T12:32:15.211Z,15.23
2018-01-14T12:34:42.795Z,15.07
2018-01-14T12:37:10.377Z,11.50
2018-01-14T12:39:38.046Z,21.02
2018-01-14T12:42:05.616Z,13.48
2018-01-14T12:44:33.465Z,11.32
2018-01-14T12:47:01.235Z,11.25
2018-01-14T12:49:28.796Z,11.80
2018-01-14T12:51:56.439Z,16.20
2018-01-14T12:54:24.948Z,12.98
2018-01-14T12:56:52.540Z,14.40
2018-01-14T12:59:21.080Z,23.35
2018-01-14T13:01:48.780Z,16.30
2018-01-14T13:04:16.380Z,13.98
2018-01-14T13:06:44.562Z,16.85
2018-01-14T13:09:12.275Z,17.05
2018-01-14T13:11:39.874Z,22.15
2018-01-14T13:14:07.585Z,14.87
2018-01-14T13:16:35.318Z,16.40
2018-01-14T13:19:02.920Z,14.70
2018-01-14T13:21:31.222Z,17.90
2018-01-14T13:23:59.313Z,14.13
2018-01-14T13:26:26.944Z,14.45
2018-01-14T13:28:55.106Z,20.70
2018-01-14T13:31:22.798Z,20.35
2018-01-14T13:33:50.446Z,16.48
2018-01-14T13:36:17.998Z,17.37
2018-01-14T13:38:45.756Z,17.40
2018-01-14T13:41:13.353Z,11.88
2018-01-14T13:43:40.997Z,20.25
2018-01-14T13:46:08.704Z,19.62
2018-01-14T13:48:36.288Z,14.10
2018-01-14T13:51:04.129Z,24.55
2018-01-14T13:53:31.931Z,14.65
2018-01-14T13:55:59.499Z,20.27
2018-01-14T13:58:27.307Z,11.57
2018-01-14T14:00:55.013Z,13.70
2018-01-14T14:03:23.533Z,12.82
2018-01-14T14:05:51.324Z,15.48
2018-01-14T14:08:19.443Z,15.02
2018-01-14T14:10:48.080Z,21.33
2018-01-14T14:13:15.739Z,15.43
2018-01-14T14:15:43.959Z,18.25
2018-01-14T14:18:12.426Z,17.92
2018-01-14T14:20:40.874Z,19.00
2018-01-14T14:23:08.596Z,13.52
2018-01-14T14:25:36.995Z,20.20
2018-01-14T14:28:04.713Z,18.30
2018-01-14T14:30:32.770Z,16.98
2018-01-14T14:33:00.462Z,20.75
2018-01-14T14:35:28.024Z,15.93
2018-01-14T14:37:55.878Z,15.35
2018-01-14T14:40:23.723Z,16.87
2018-01-14T14:42:51.478Z,15.30
2018-01-14T14:45:19.199Z,15.57
2018-01-14T14:47:47.587Z,18.80
2018-01-14T14:50:15.506Z,22.70
2018-01-14T14:52:49.561Z,18.37
2018-01-14T14:58:44.977Z,21.75
2018-01-14T15:01:13.010Z,18.20
2018-01-14T15:03:40.745Z,16.58
2018-01-14T15:06:08.433Z,20.35
2018-01-14T15:08:36.204Z,17.45
2018-01-14T15:11:03.962Z,16.70
2018-01-14T15:13:31.686Z,14.13
2018-01-14T15:15:59.520Z,17.52
2018-01-14T15:18:27.150Z,17.85
2018-01-14T15:20:54.795Z,21.67
2018-01-14T15:23:22.740Z,26.30
2018-01-14T15:25:50.646Z,16.67
2018-01-14T15:28:18.555Z,19.23
2018-01-14T15:30:47.573Z,20.70
2018-01-14T15:33:19.276Z,27.25
2018-01-14T15:35:48.545Z,17.90
2018-01-14T15:38:16.327Z,20.20
2018-01-14T15:40:48.034Z,22.48
2018-01-14T15:43:15.950Z,16.80
2018-01-14T15:45:45.505Z,13.93
2018-01-14T15:48:13.381Z,17.52
2018-01-14T15:50:41.341Z,17.25
2018-01-14T15:53:09.283Z,16.23
2018-01-14T15:55:36.958Z,17.75
2018-01-14T15:58:05.010Z,15.65
2018-01-14T16:00:32.862Z,14.75
2018-01-14T16:03:02.546Z,16.92
2018-01-14T16:05:30.481Z,17.85
2018-01-14T16:07:58.320Z,16.27
2018-01-14T16:10:26.696Z,17.30
2018-01-14T16:12:54.424Z,13.70
2018-01-14T16:15:23.383Z,16.85
2018-01-14T16:17:51.096Z,14.00
2018-01-14T16:20:19.780Z,20.75
2018-01-14T16:22:48.801Z,16.02
2018-01-14T16:25:19.815Z,16.30
2018-01-14T16:27:49.157Z,19.58
2018-01-14T16:30:17.649Z,21.48
2018-01-14T16:32:48.008Z,18.55
2018-01-14T16:35:16.701Z,20.95
2018-01-14T16:37:44.574Z,19.35
2018-01-14T16:40:12.306Z,19.80
2018-01-14T16:42:40.059Z,20.35
2018-01-14T16:45:09.113Z,19.73
2018-01-14T16:47:37.608Z,24.12
2018-01-14T16:50:05.454Z,21.62
2018-01-14T16:52:33.917Z,21.37
2018-01-14T16:55:01.882Z,14.85
2018-01-14T16:57:38.771Z,16.50
2018-01-14T17:00:14.712Z,14.75
2018-01-14T17:02:42.992Z,13.73
2018-01-14T17:05:12.226Z,15.70
2018-01-14T17:07:40.118Z,17.40
2018-01-14T17:10:08.857Z,14.20
2018-01-14T17:12:36.541Z,16.20
2018-01-14T17:15:04.956Z,19.33
2018-01-14T17:17:33.633Z,22.70
2018-01-14T17:20:02.475Z,15.07
2018-01-14T17:22:31.095Z,19.05
2018-01-14T17:25:00.566Z,19.52
2018-01-14T17:27:28.505Z,17.85
2018-01-14T17:29:56.222Z,15.75
2018-01-14T17:32:24.040Z,14.35
2018-01-14T17:34:52.419Z,14.00
2018-01-14T17:37:20.300Z,13.20
2018-01-14T17:39:47.977Z,16.52
2018-01-14T17:42:17.947Z,16.52
2018-01-14T17:44:45.610Z,14.85
2018-01-14T17:47:14.276Z,17.73
2018-01-14T17:49:42.927Z,16.15
2018-01-14T17:52:11.605Z,13.62
2018-01-14T17:54:43.880Z,15.40
2018-01-14T17:57:11.811Z,13.60
2018-01-14T17:59:40.588Z,19.45
2018-01-14T18:02:08.387Z,15.13
2018-01-14T18:04:36.691Z,17.67
2018-01-14T18:07:04.322Z,16.15
2018-01-14T18:09:32.007Z,16.50
2018-01-14T18:11:59.603Z,16.25
2018-01-14T18:14:27.163Z,16.65
2018-01-14T18:19:59.714Z,16.25
2018-01-14T18:22:27.401Z,17.77
2018-01-14T18:24:55.014Z,16.15
2018-01-14T18:27:22.694Z,13.13
2018-01-14T18:29:50.414Z,15.52
2018-01-14T18:32:18.283Z,13.85
2018-01-14T18:34:45.801Z,13.25
2018-01-14T18:37:13.449Z,13.62
2018-01-14T18:39:41.232Z,15.70
2018-01-14T18:42:08.898Z,11.85
2018-01-14T18:44:37.187Z,17.27
2018-01-14T18:47:04.964Z,9.90
2018-01-14T18:49:32.686Z,14.68
2018-01-14T18:52:00.345Z,16.95
2018-01-14T18:54:28.637Z,11.95
2018-01-14T18:56:56.699Z,13.02
2018-01-14T18:59:25.188Z,16.67
2018-01-14T19:01:53.361Z,15.95
2018-01-14T19:04:22.188Z,16.23
2018-01-14T19:06:50.688Z,20.90
2018-01-14T19:09:19.321Z,17.50
2018-01-14T19:11:48.591Z,18.73
2018-01-14T19:14:16.214Z,18.10
2018-01-14T19:16:44.064Z,18.98
2018-01-14T19:19:12.544Z,19.60
2018-01-14T19:21:40.484Z,16.80
2018-01-14T19:24:08.274Z,14.32
2018-01-14T19:26:35.917Z,20.40
2018-01-14T19:29:04.792Z,14.32
2018-01-14T19:31:33.616Z,20.80
2018-01-14T19:34:01.347Z,15.63
2018-01-14T19:36:28.950Z,15.93
2018-01-14T19:38:56.658Z,19.98
2018-01-14T19:41:24.956Z,13.55
2018-01-14T19:43:52.584Z,21.12
2018-01-14T19:46:20.993Z,18.02
2018-01-14T19:48:48.674Z,15.73
2018-01-14T19:51:17.495Z,18.80
2018-01-14T19:53:45.892Z,14.50
2018-01-14T19:56:13.452Z,15.98
2018-01-14T19:58:40.995Z,14.63
2018-01-14T20:01:09.779Z,18.23
2018-01-14T20:03:37.445Z,25.00
2018-01-14T20:06:06.062Z,14.15
2018-01-14T20:08:34.554Z,24.48
2018-01-14T20:11:02.185Z,20.75
2018-01-14T20:13:29.753Z,26.55
2018-01-14T20:15:57.497Z,18.58
2018-01-14T20:18:25.698Z,21.90
2018-01-14T20:20:54.212Z,19.17
2018-01-14T20:23:22.142Z,27.30
2018-01-14T20:25:49.783Z,23.25
2018-01-14T20:28:17.400Z,17.00
2018-01-14T20:30:45.211Z,24.35
2018-01-14T20:33:12.859Z,17.30
2018-01-14T20:35:40.470Z,25.23
2018-01-14T20:38:08.387Z,32.85
2018-01-14T20:40:36.062Z,26.15
2018-01-14T20:43:03.774Z,28.02
2018-01-14T20:45:32.528Z,25.92
2018-01-14T20:48:00.310Z,23.38
2018-01-14T20:50:28.037Z,26.27
2018-01-14T20:52:55.959Z,16.70
2018-01-14T20:55:24.447Z,21.23
2018-01-14T20:57:52.310Z,19.52
2018-01-14T21:00:20.667Z,20.83
2018-01-14T21:02:48.333Z,20.83
2018-01-14T21:05:16.727Z,15.68
2018-01-14T21:07:45.233Z,17.20
2018-01-14T21:10:13.046Z,17.48
2018-01-14T21:12:41.021Z,20.15
2018-01-14T21:15:09.730Z,24.20
2018-01-14T21:17:37.680Z,14.73
2018-01-14T21:20:05.426Z,19.40
2018-01-14T21:22:34.841Z,23.55
2018-01-14T21:25:16.742Z,26.10
2018-01-14T21:27:45.833Z,24.75
2018-01-14T21:30:13.710Z,18.77
2018-01-14T21:32:41.447Z,24.10
2018-01-14T21:35:09.233Z,19.12
2018-01-14T21:37:37.928Z,19.10
2018-01-14T21:40:06.681Z,17.50
2018-01-14T21:42:34.753Z,23.40
2018-01-14T21:45:03.452Z,17.15
2018-01-14T21:47:32.744Z,22.83
2018-01-14T21:50:00.378Z,23.33
2018-01-14T21:52:28.190Z,22.90
2018-01-14T21:54:56.730Z,29.20
2018-01-14T21:57:24.385Z,20.98
2018-01-14T21:59:53.144Z,21.17
2018-01-14T22:02:21.030Z,17.77
2018-01-14T22:04:48.750Z,23.62
2018-01-14T22:07:16.600Z,20.62
2018-01-14T22:09:44.324Z,14.80
2018-01-14T22:12:12.217Z,21.40
2018-01-14T22:14:40.702Z,18.75
2018-01-14T22:31:31.054Z,15.30
2018-01-14T22:33:58.674Z,12.40
2018-01-14T22:36:26.353Z,17.50
2018-01-14T22:38:54.037Z,14.95
2018-01-14T22:41:21.605Z,14.20
2018-01-14T22:43:49.520Z,14.90
2018-01-14T22:46:17.784Z,12.63
2018-01-14T22:48:45.543Z,14.65
2018-01-14T22:51:14.077Z,14.30
2018-01-14T22:53:42.066Z,14.05
2018-01-14T22:56:10.544Z,11.63
2018-01-14T22:58:38.797Z,12.10
2018-01-14T23:01:07.334Z,11.27
2018-01-14T23:03:35.148Z,11.73
2018-01-14T23:06:03.274Z,9.25
2018-01-14T23:08:30.985Z,15.27
2018-01-14T23:10:59.285Z,9.80
2018-01-14T23:13:26.880Z,14.85
2018-01-14T23:15:54.581Z,12.23
2018-01-14T23:18:22.870Z,14.05
2018-01-14T23:20:50.520Z,15.63
2018-01-14T23:23:18.263Z,12.73
2018-01-14T23:25:45.979Z,15.10
2018-01-14T23:28:14.849Z,14.82
2018-01-14T23:30:42.561Z,16.00
2018-01-14T23:33:10.235Z,17.90
2018-01-14T23:35:37.838Z,15.23
2018-01-14T23:38:05.586Z,11.80
2018-01-14T23:40:33.374Z,11.82
2018-01-14T23:43:01.151Z,11.65
2018-01-14T23:45:28.946Z,12.27
2018-01-14T23:47:57.278Z,14.63
2018-01-14T23:50:25.729Z,11.70
2018-01-14T23:52:53.448Z,18.30
2018-01-14T23:55:21.088Z,12.73
2018-01-14T23:57:50.053Z,16.37
